createdAt,value
2023-05-12T00:00:03.301Z,14.14
2023-05-12T00:01:03.729Z,14.16
2023-05-12T00:02:03.704Z,14.12
2023-05-12T00:03:03.462Z,14.12
2023-05-12T00:04:03.493Z,14.10
2023-05-12T00:05:03.664Z,14.07
2023-05-12T00:06:03.711Z,14.09
2023-05-12T00:07:03.486Z,14.10
2023-05-12T00:08:04.107Z,14.07
2023-05-12T00:09:03.635Z,14.09
2023-05-12T00:10:03.592Z,14.07
2023-05-12T00:11:03.237Z,14.09
2023-05-12T00:12:03.451Z,14.07
2023-05-12T00:13:04.590Z,14.09
2023-05-12T00:14:03.225Z,14.12
2023-05-12T00:15:03.293Z,14.09
2023-05-12T00:16:04.384Z,14.10
2023-05-12T00:17:03.797Z,14.10
2023-05-12T00:18:03.214Z,14.09
2023-05-12T00:19:03.310Z,14.09
2023-05-12T00:20:03.609Z,14.10
2023-05-12T00:21:03.122Z,14.09
2023-05-12T00:22:03.551Z,14.12
2023-05-12T00:23:03.136Z,14.12
2023-05-12T00:24:04.246Z,14.12
2023-05-12T00:25:03.164Z,14.10
2023-05-12T00:26:03.109Z,14.10
2023-05-12T00:27:03.621Z,14.10
2023-05-12T00:28:03.946Z,14.10
2023-05-12T00:29:03.260Z,14.12
2023-05-12T00:30:03.076Z,14.13
2023-05-12T00:31:04.987Z,14.14
2023-05-12T00:32:03.248Z,14.14
2023-05-12T00:33:03.110Z,14.13
2023-05-12T00:34:02.993Z,14.13
2023-05-12T00:35:04.788Z,14.12
2023-05-12T00:36:03.425Z,14.12
2023-05-12T00:37:02.952Z,14.10
2023-05-12T00:38:03.074Z,14.09
2023-05-12T00:39:04.119Z,14.10
2023-05-12T00:40:03.459Z,14.10
2023-05-12T00:41:03.396Z,14.10
2023-05-12T00:42:03.265Z,14.12
2023-05-12T00:43:04.621Z,14.10
2023-05-12T00:44:02.936Z,14.10
2023-05-12T00:45:03.255Z,14.12
2023-05-12T00:46:03.417Z,14.09
2023-05-12T00:47:03.197Z,14.10
2023-05-12T00:48:03.581Z,14.09
2023-05-12T00:49:04.753Z,14.07
2023-05-12T00:50:03.370Z,14.09
2023-05-12T00:51:02.954Z,14.06
2023-05-12T00:52:03.870Z,14.07
2023-05-12T00:53:03.066Z,14.07
2023-05-12T00:54:03.028Z,14.06
2023-05-12T00:55:03.379Z,14.04
2023-05-12T00:56:03.969Z,14.09
2023-05-12T00:57:02.960Z,14.06
2023-05-12T00:58:02.837Z,14.06
2023-05-12T00:59:02.891Z,14.06
2023-05-12T01:00:02.904Z,14.06
2023-05-12T01:01:02.826Z,14.04
2023-05-12T01:02:02.944Z,14.06
2023-05-12T01:03:02.886Z,14.04
2023-05-12T01:04:03.193Z,14.01
2023-05-12T01:05:02.704Z,14.01
2023-05-12T01:06:02.768Z,13.99
2023-05-12T01:07:03.263Z,14.01
2023-05-12T01:08:03.270Z,13.98
2023-05-12T01:09:02.625Z,14.01
2023-05-12T01:10:02.670Z,13.99
2023-05-12T01:11:03.594Z,13.96
2023-05-12T01:12:02.617Z,13.95
2023-05-12T01:13:02.579Z,13.94
2023-05-12T01:14:02.555Z,13.94
2023-05-12T01:15:02.644Z,13.94
2023-05-12T01:16:02.521Z,13.91
2023-05-12T01:17:02.681Z,13.91
2023-05-12T01:18:02.545Z,13.89
2023-05-12T01:19:02.624Z,13.91
2023-05-12T01:20:02.559Z,13.88
2023-05-12T01:21:02.818Z,13.89
2023-05-12T01:22:03.990Z,13.88
2023-05-12T01:23:02.443Z,13.88
2023-05-12T01:24:02.447Z,13.84
2023-05-12T01:25:03.742Z,13.87
2023-05-12T01:26:02.428Z,13.83
2023-05-12T01:27:02.431Z,13.84
2023-05-12T01:28:02.602Z,13.80
2023-05-12T01:29:02.636Z,13.83
2023-05-12T01:30:02.600Z,13.80
2023-05-12T01:31:02.542Z,13.80
2023-05-12T01:32:02.322Z,13.80
2023-05-12T01:33:03.910Z,13.79
2023-05-12T01:34:02.555Z,13.77
2023-05-12T01:35:02.297Z,13.79
2023-05-12T01:36:02.637Z,13.76
2023-05-12T01:37:03.867Z,13.76
2023-05-12T01:38:02.441Z,13.76
2023-05-12T01:39:02.377Z,13.76
2023-05-12T01:40:03.038Z,13.76
2023-05-12T01:41:02.506Z,13.74
2023-05-12T01:42:02.226Z,13.71
2023-05-12T01:43:02.287Z,13.73
2023-05-12T01:44:02.431Z,13.73
2023-05-12T01:45:02.323Z,13.74
2023-05-12T01:46:02.262Z,13.73
2023-05-12T01:47:02.195Z,13.73
2023-05-12T01:48:04.284Z,13.71
2023-05-12T01:49:02.172Z,13.70
2023-05-12T01:50:02.147Z,13.71
2023-05-12T01:51:02.580Z,13.70
2023-05-12T01:52:03.168Z,13.69
2023-05-12T01:53:02.201Z,13.69
2023-05-12T01:54:02.178Z,13.69
2023-05-12T01:55:02.122Z,13.67
2023-05-12T01:56:02.102Z,13.67
2023-05-12T01:57:02.137Z,13.67
2023-05-12T01:58:02.107Z,13.67
2023-05-12T01:59:03.727Z,13.67
2023-05-12T02:00:02.024Z,13.67
2023-05-12T02:01:02.199Z,13.67
2023-05-12T02:02:03.398Z,13.67
2023-05-12T02:03:03.821Z,13.65
2023-05-12T02:04:02.134Z,13.63
2023-05-12T02:05:02.062Z,13.65
2023-05-12T02:06:03.790Z,13.63
2023-05-12T02:07:02.009Z,13.62
2023-05-12T02:08:02.144Z,13.62
2023-05-12T02:09:02.136Z,13.62
2023-05-12T02:10:03.668Z,13.62
2023-05-12T02:11:02.137Z,13.61
2023-05-12T02:12:02.031Z,13.62
2023-05-12T02:13:01.988Z,13.61
2023-05-12T02:14:02.356Z,13.59
2023-05-12T02:15:02.000Z,13.59
2023-05-12T02:16:01.976Z,13.59
2023-05-12T02:17:03.628Z,13.61
2023-05-12T02:18:01.952Z,13.59
2023-05-12T02:19:01.995Z,13.61
2023-05-12T02:20:01.936Z,13.54
2023-05-12T02:21:02.909Z,13.58
2023-05-12T02:22:01.865Z,13.56
2023-05-12T02:23:01.850Z,13.55
2023-05-12T02:24:01.732Z,13.54
2023-05-12T02:25:02.290Z,13.54
2023-05-12T02:26:01.917Z,13.54
2023-05-12T02:27:01.841Z,13.54
2023-05-12T02:28:02.444Z,13.54
2023-05-12T02:29:01.850Z,13.51
2023-05-12T02:30:01.795Z,13.51
2023-05-12T02:31:01.708Z,13.51
2023-05-12T02:32:03.240Z,13.49
2023-05-12T02:33:01.722Z,13.51
2023-05-12T02:34:02.177Z,13.49
2023-05-12T02:35:01.752Z,13.51
2023-05-12T02:36:01.689Z,13.49
2023-05-12T02:37:01.632Z,13.49
2023-05-12T02:38:01.677Z,13.49
2023-05-12T02:39:01.676Z,13.47
2023-05-12T02:40:02.188Z,13.44
2023-05-12T02:41:01.579Z,13.46
2023-05-12T02:42:01.589Z,13.46
2023-05-12T02:43:03.020Z,13.46
2023-05-12T02:44:01.629Z,13.46
2023-05-12T02:45:01.516Z,13.44
2023-05-12T02:46:01.674Z,13.43
2023-05-12T02:47:01.539Z,13.43
2023-05-12T02:48:01.533Z,13.43
2023-05-12T02:49:01.526Z,13.46
2023-05-12T02:50:02.405Z,13.41
2023-05-12T02:51:01.472Z,13.44
2023-05-12T02:52:01.518Z,13.41
2023-05-12T02:53:01.788Z,13.43
2023-05-12T02:54:01.622Z,13.44
2023-05-12T02:55:01.461Z,13.41
2023-05-12T02:56:01.478Z,13.40
2023-05-12T02:57:01.693Z,13.40
2023-05-12T02:58:01.656Z,13.40
2023-05-12T02:59:01.372Z,13.38
2023-05-12T03:00:01.371Z,13.40
2023-05-12T03:01:10.114Z,13.38
2023-05-12T03:02:02.596Z,13.38
2023-05-12T03:03:01.587Z,13.36
2023-05-12T03:04:01.383Z,13.36
2023-05-12T03:05:02.856Z,13.38
2023-05-12T03:06:01.335Z,13.40
2023-05-12T03:07:01.371Z,13.37
2023-05-12T03:08:01.671Z,13.36
2023-05-12T03:09:01.655Z,13.37
2023-05-12T03:10:01.316Z,13.33
2023-05-12T03:11:01.263Z,13.36
2023-05-12T03:12:03.014Z,13.38
2023-05-12T03:13:01.389Z,13.36
2023-05-12T03:14:01.230Z,13.36
2023-05-12T03:15:01.227Z,13.36
2023-05-12T03:16:01.558Z,13.33
2023-05-12T03:17:01.982Z,13.36
2023-05-12T03:18:01.244Z,13.32
2023-05-12T03:19:01.211Z,13.37
2023-05-12T03:20:02.665Z,13.33
2023-05-12T03:21:01.228Z,13.36
2023-05-12T03:22:01.122Z,13.30
2023-05-12T03:23:01.176Z,13.33
2023-05-12T03:24:02.165Z,13.33
2023-05-12T03:25:01.146Z,13.33
2023-05-12T03:26:01.295Z,13.36
2023-05-12T03:27:02.886Z,13.33
2023-05-12T03:28:01.550Z,13.33
2023-05-12T03:29:01.133Z,13.33
2023-05-12T03:30:01.055Z,13.33
2023-05-12T03:31:01.766Z,13.30
2023-05-12T03:32:01.514Z,13.30
2023-05-12T03:33:01.069Z,13.29
2023-05-12T03:34:01.012Z,13.27
2023-05-12T03:35:02.533Z,13.25
2023-05-12T03:36:01.001Z,13.29
2023-05-12T03:37:01.043Z,13.29
2023-05-12T03:38:00.961Z,13.25
2023-05-12T03:39:02.190Z,13.24
2023-05-12T03:40:01.077Z,13.25
2023-05-12T03:41:00.908Z,13.25
2023-05-12T03:42:00.974Z,13.25
2023-05-12T03:43:01.388Z,13.25
2023-05-12T03:44:00.925Z,13.24
2023-05-12T03:45:01.026Z,13.24
2023-05-12T03:46:01.226Z,13.22
2023-05-12T03:47:01.139Z,13.21
2023-05-12T03:48:00.978Z,13.24
2023-05-12T03:49:00.897Z,13.24
2023-05-12T03:50:02.611Z,13.21
2023-05-12T03:51:00.800Z,13.24
2023-05-12T03:52:00.877Z,13.22
2023-05-12T03:53:00.853Z,13.21
2023-05-12T03:54:00.838Z,13.18
2023-05-12T03:55:00.821Z,13.20
2023-05-12T03:56:00.812Z,13.21
2023-05-12T03:57:00.852Z,13.21
2023-05-12T03:58:01.313Z,13.18
2023-05-12T03:59:00.938Z,13.18
2023-05-12T04:00:00.803Z,13.18
2023-05-12T04:01:00.745Z,13.15
2023-05-12T04:02:01.409Z,13.20
2023-05-12T04:03:00.789Z,13.21
2023-05-12T04:04:00.749Z,13.21
2023-05-12T04:05:01.632Z,13.21
2023-05-12T04:06:00.630Z,13.22
2023-05-12T04:07:00.667Z,13.21
2023-05-12T04:08:00.787Z,13.24
2023-05-12T04:09:00.656Z,13.24
2023-05-12T04:10:00.634Z,13.24
2023-05-12T04:11:00.632Z,13.25
2023-05-12T04:12:00.685Z,13.24
2023-05-12T04:13:00.768Z,13.29
2023-05-12T04:14:00.526Z,13.30
2023-05-12T04:15:00.605Z,13.33
2023-05-12T04:16:00.644Z,13.33
2023-05-12T04:17:00.754Z,13.30
2023-05-12T04:18:00.589Z,13.33
2023-05-12T04:19:00.882Z,13.32
2023-05-12T04:20:00.844Z,13.32
2023-05-12T04:21:00.529Z,13.30
2023-05-12T04:22:00.627Z,13.29
2023-05-12T04:23:00.794Z,13.32
2023-05-12T04:24:00.647Z,13.30
2023-05-12T04:25:00.450Z,13.29
2023-05-12T04:26:00.595Z,13.29
2023-05-12T04:27:00.455Z,13.33
2023-05-12T04:28:00.568Z,13.37
2023-05-12T04:29:00.546Z,13.37
2023-05-12T04:30:00.583Z,13.37
2023-05-12T04:31:00.670Z,13.33
2023-05-12T04:32:00.465Z,13.36
2023-05-12T04:33:00.451Z,13.38
2023-05-12T04:34:00.471Z,13.38
2023-05-12T04:35:01.323Z,13.43
2023-05-12T04:36:00.367Z,13.41
2023-05-12T04:37:00.346Z,13.41
2023-05-12T04:38:00.299Z,13.44
2023-05-12T04:39:00.323Z,13.37
2023-05-12T04:40:00.282Z,13.40
2023-05-12T04:41:00.366Z,13.40
2023-05-12T04:42:00.488Z,13.40
2023-05-12T04:43:00.291Z,13.41
2023-05-12T04:44:00.793Z,13.47
2023-05-12T04:45:00.439Z,13.52
2023-05-12T04:46:00.621Z,13.56
2023-05-12T04:47:00.289Z,13.56
2023-05-12T04:48:00.361Z,13.59
2023-05-12T04:49:01.145Z,13.56
2023-05-12T04:50:00.231Z,13.55
2023-05-12T04:51:00.196Z,13.59
2023-05-12T04:52:00.157Z,13.63
2023-05-12T04:53:00.191Z,13.56
2023-05-12T04:54:00.681Z,13.56
2023-05-12T04:55:00.218Z,13.55
2023-05-12T04:56:00.204Z,13.58
2023-05-12T04:57:00.161Z,13.61
2023-05-12T04:58:01.089Z,13.61
2023-05-12T04:59:00.193Z,13.61
2023-05-12T05:00:00.214Z,13.59
2023-05-12T05:01:00.287Z,13.61
2023-05-12T05:02:00.133Z,13.61
2023-05-12T05:03:00.246Z,13.59
2023-05-12T05:04:00.199Z,13.63
2023-05-12T05:05:00.483Z,13.56
2023-05-12T05:06:00.039Z,13.59
2023-05-12T05:07:00.000Z,13.59
2023-05-12T05:08:00.069Z,13.61
2023-05-12T05:09:00.038Z,13.59
2023-05-12T05:10:00.036Z,13.62
2023-05-12T05:10:59.954Z,13.63
2023-05-12T05:11:59.958Z,13.67
2023-05-12T05:13:00.118Z,13.67
2023-05-12T05:14:00.019Z,13.63
2023-05-12T05:14:59.906Z,13.65
2023-05-12T05:16:01.030Z,13.61
2023-05-12T05:16:59.942Z,13.65
2023-05-12T05:18:01.781Z,13.73
2023-05-12T05:19:03.766Z,13.77
2023-05-12T05:20:09.487Z,13.83
2023-05-12T05:21:02.623Z,13.88
2023-05-12T05:21:59.884Z,13.77
2023-05-12T05:22:59.986Z,13.79
2023-05-12T05:24:00.141Z,13.81
2023-05-12T05:24:59.850Z,13.84
2023-05-12T05:25:59.782Z,13.89
2023-05-12T05:26:59.815Z,13.88
2023-05-12T05:28:00.281Z,13.94
2023-05-12T05:28:59.890Z,14.01
2023-05-12T05:29:59.728Z,14.12
2023-05-12T05:30:59.735Z,14.17
2023-05-12T05:31:59.814Z,14.17
2023-05-12T05:32:59.746Z,14.13
2023-05-12T05:33:59.840Z,14.24
2023-05-12T05:34:59.732Z,14.24
2023-05-12T05:35:59.820Z,14.27
2023-05-12T05:36:59.847Z,14.32
2023-05-12T05:37:59.764Z,14.38
2023-05-12T05:38:59.964Z,14.37
2023-05-12T05:39:59.658Z,14.42
2023-05-12T05:40:59.728Z,14.52
2023-05-12T05:41:59.679Z,14.49
2023-05-12T05:42:59.649Z,14.43
2023-05-12T05:43:59.639Z,14.50
2023-05-12T05:44:59.595Z,14.46
2023-05-12T05:45:59.641Z,14.44
2023-05-12T05:46:59.644Z,14.56
2023-05-12T05:47:59.499Z,14.57
2023-05-12T05:48:59.508Z,14.67
2023-05-12T05:50:00.224Z,14.67
2023-05-12T05:50:59.718Z,14.68
2023-05-12T05:51:59.583Z,14.69
2023-05-12T05:52:59.472Z,14.75
2023-05-12T05:54:01.016Z,14.74
2023-05-12T05:54:59.554Z,14.72
2023-05-12T05:55:59.561Z,14.78
2023-05-12T05:57:00.189Z,14.87
2023-05-12T05:57:59.609Z,14.83
2023-05-12T05:58:59.486Z,14.84
2023-05-12T05:59:59.580Z,14.83
2023-05-12T06:00:59.499Z,14.87
2023-05-12T06:01:59.503Z,14.88
2023-05-12T06:02:59.471Z,14.88
2023-05-12T06:03:59.620Z,14.90
2023-05-12T06:04:59.419Z,14.87
2023-05-12T06:05:59.445Z,14.93
2023-05-12T06:06:59.519Z,15.02
2023-05-12T06:07:59.418Z,15.01
2023-05-12T06:08:59.597Z,15.01
2023-05-12T06:09:59.526Z,15.06
2023-05-12T06:10:59.370Z,15.11
2023-05-12T06:11:59.811Z,15.12
2023-05-12T06:12:59.265Z,15.11
2023-05-12T06:13:59.388Z,15.08
2023-05-12T06:14:59.378Z,15.09
2023-05-12T06:15:59.390Z,15.06
2023-05-12T06:16:59.447Z,15.08
2023-05-12T06:17:59.400Z,15.11
2023-05-12T06:18:59.323Z,15.13
2023-05-12T06:19:59.610Z,15.20
2023-05-12T06:20:59.121Z,15.24
2023-05-12T06:21:59.135Z,15.35
2023-05-12T06:22:59.110Z,15.38
2023-05-12T06:23:59.464Z,15.31
2023-05-12T06:24:59.146Z,15.36
2023-05-12T06:25:59.187Z,15.39
2023-05-12T06:26:59.172Z,15.39
2023-05-12T06:27:59.180Z,15.41
2023-05-12T06:28:59.268Z,15.49
2023-05-12T06:29:59.152Z,15.52
2023-05-12T06:30:59.290Z,15.60
2023-05-12T06:31:59.122Z,15.72
2023-05-12T06:32:59.207Z,15.78
2023-05-12T06:33:59.031Z,15.82
2023-05-12T06:35:00.060Z,15.74
2023-05-12T06:35:59.025Z,15.72
2023-05-12T06:36:59.123Z,15.67
2023-05-12T06:37:59.001Z,15.66
2023-05-12T06:39:00.211Z,15.67
2023-05-12T06:39:59.206Z,15.64
2023-05-12T06:40:59.252Z,15.78
2023-05-12T06:41:59.340Z,15.79
2023-05-12T06:42:59.559Z,15.88
2023-05-12T06:43:58.894Z,15.89
2023-05-12T06:44:58.855Z,15.94
2023-05-12T06:45:58.907Z,16.03
2023-05-12T06:46:58.988Z,15.97
2023-05-12T06:47:58.936Z,16.03
2023-05-12T06:48:58.815Z,16.09
2023-05-12T06:50:00.508Z,16.11
2023-05-12T06:50:58.871Z,16.01
2023-05-12T06:51:59.107Z,16.07
2023-05-12T06:52:58.841Z,16.16
2023-05-12T06:54:00.366Z,16.27
2023-05-12T06:54:58.902Z,16.27
2023-05-12T06:55:58.976Z,16.40
2023-05-12T06:56:58.819Z,16.50
2023-05-12T06:57:58.912Z,16.52
2023-05-12T06:58:58.896Z,16.48
2023-05-12T06:59:58.994Z,16.55
2023-05-12T07:01:00.107Z,16.67
2023-05-12T07:01:58.922Z,16.77
2023-05-12T07:02:58.835Z,16.88
2023-05-12T07:03:58.797Z,16.96
2023-05-12T07:04:59.389Z,17.07
2023-05-12T07:05:58.873Z,17.14
2023-05-12T07:06:58.737Z,17.13
2023-05-12T07:07:58.708Z,17.06
2023-05-12T07:08:59.085Z,16.96
2023-05-12T07:09:58.742Z,17.03
2023-05-12T07:10:58.750Z,17.13
2023-05-12T07:11:58.675Z,17.06
2023-05-12T07:12:58.690Z,17.10
2023-05-12T07:13:58.771Z,17.10
2023-05-12T07:14:58.884Z,17.17
2023-05-12T07:15:58.769Z,17.25
2023-05-12T07:16:58.749Z,17.32
2023-05-12T07:17:58.603Z,17.30
2023-05-12T07:18:58.634Z,17.28
2023-05-12T07:19:59.138Z,17.15
2023-05-12T07:20:58.747Z,17.06
2023-05-12T07:21:58.567Z,16.90
2023-05-12T07:22:58.593Z,16.90
2023-05-12T07:23:58.732Z,16.98
2023-05-12T07:24:58.570Z,16.90
2023-05-12T07:25:58.478Z,16.78
2023-05-12T07:26:58.514Z,16.86
2023-05-12T07:27:58.529Z,16.96
2023-05-12T07:28:58.532Z,17.04
2023-05-12T07:29:58.559Z,17.20
2023-05-12T07:30:58.624Z,17.28
2023-05-12T07:31:58.618Z,17.35
2023-05-12T07:32:58.606Z,17.35
2023-05-12T07:33:58.493Z,17.40
2023-05-12T07:34:59.363Z,17.36
2023-05-12T07:35:58.677Z,17.41
2023-05-12T07:36:58.425Z,17.40
2023-05-12T07:38:00.297Z,17.35
2023-05-12T07:38:59.928Z,17.30
2023-05-12T07:39:58.431Z,17.29
2023-05-12T07:40:58.376Z,17.32
2023-05-12T07:41:58.391Z,17.38
2023-05-12T07:42:58.577Z,17.44
2023-05-12T07:43:58.376Z,17.36
2023-05-12T07:44:58.376Z,17.33
2023-05-12T07:45:58.328Z,17.35
2023-05-12T07:46:58.290Z,17.41
2023-05-12T07:47:58.391Z,17.32
2023-05-12T07:48:58.268Z,17.35
2023-05-12T07:49:58.471Z,17.44
2023-05-12T07:50:58.417Z,17.63
2023-05-12T07:51:58.396Z,17.73
2023-05-12T07:52:58.283Z,17.69
2023-05-12T07:53:58.672Z,17.67
2023-05-12T07:54:58.250Z,17.74
2023-05-12T07:55:58.143Z,17.64
2023-05-12T07:56:58.202Z,17.67
2023-05-12T07:57:58.452Z,17.62
2023-05-12T07:58:58.163Z,17.64
2023-05-12T07:59:59.574Z,17.69
2023-05-12T08:00:58.180Z,17.70
2023-05-12T08:01:58.226Z,17.82
2023-05-12T08:02:58.342Z,17.87
2023-05-12T08:03:58.314Z,17.94
2023-05-12T08:04:58.318Z,17.85
2023-05-12T08:05:58.215Z,17.85
2023-05-12T08:06:58.133Z,17.97
2023-05-12T08:07:58.077Z,17.87
2023-05-12T08:08:59.499Z,17.71
2023-05-12T08:09:58.109Z,17.70
2023-05-12T08:10:58.108Z,17.84
2023-05-12T08:11:58.029Z,18.02
2023-05-12T08:12:58.028Z,18.10
2023-05-12T08:13:57.936Z,18.22
2023-05-12T08:14:57.984Z,18.29
2023-05-12T08:15:58.171Z,18.24
2023-05-12T08:16:59.546Z,18.28
2023-05-12T08:17:58.138Z,18.43
2023-05-12T08:18:58.004Z,18.58
2023-05-12T08:19:59.325Z,18.65
2023-05-12T08:20:57.936Z,18.62
2023-05-12T08:21:57.914Z,18.64
2023-05-12T08:22:58.102Z,18.57
2023-05-12T08:23:58.014Z,18.58
2023-05-12T08:24:57.971Z,18.58
2023-05-12T08:25:58.003Z,18.57
2023-05-12T08:26:58.081Z,18.65
2023-05-12T08:28:26.396Z,18.64
2023-05-12T08:28:57.976Z,18.55
2023-05-12T08:30:01.379Z,18.50
2023-05-12T08:31:04.806Z,18.61
2023-05-12T08:32:11.450Z,18.64
2023-05-12T08:33:05.314Z,18.57
2023-05-12T08:34:10.289Z,18.49
2023-05-12T08:34:58.992Z,18.46
2023-05-12T08:35:57.812Z,18.50
2023-05-12T08:36:57.767Z,18.40
2023-05-12T08:37:59.181Z,18.33
2023-05-12T08:38:59.348Z,18.33
2023-05-12T08:39:57.747Z,18.39
2023-05-12T08:40:57.844Z,18.39
2023-05-12T08:41:58.755Z,18.36
2023-05-12T08:42:58.386Z,18.37
2023-05-12T08:43:59.584Z,18.28
2023-05-12T08:44:57.685Z,18.24
2023-05-12T08:45:57.948Z,18.10
2023-05-12T08:46:57.865Z,18.07
2023-05-12T08:47:59.591Z,18.07
2023-05-12T08:48:57.993Z,18.12
2023-05-12T08:49:57.697Z,18.25
2023-05-12T08:50:57.915Z,18.39
2023-05-12T08:51:58.447Z,18.43
2023-05-12T08:52:58.590Z,18.37
2023-05-12T08:53:57.549Z,18.42
2023-05-12T08:54:57.689Z,18.49
2023-05-12T08:57:09.616Z,18.43
2023-05-12T08:57:57.764Z,18.49
2023-05-12T08:58:57.557Z,18.61
2023-05-12T08:59:57.595Z,18.55
2023-05-12T09:00:57.645Z,18.61
2023-05-12T09:01:57.665Z,18.62
2023-05-12T09:02:57.536Z,18.70
2023-05-12T09:03:59.516Z,18.72
2023-05-12T09:04:58.943Z,18.62
2023-05-12T09:05:57.413Z,18.64
2023-05-12T09:06:57.686Z,18.61
2023-05-12T09:07:58.911Z,18.61
2023-05-12T09:08:57.489Z,18.64
2023-05-12T09:09:57.530Z,18.70
2023-05-12T09:10:57.533Z,18.64
2023-05-12T09:11:59.355Z,18.64
2023-05-12T09:12:57.548Z,18.61
2023-05-12T09:13:57.437Z,18.64
2023-05-12T09:14:57.452Z,18.64
2023-05-12T09:15:57.622Z,18.73
2023-05-12T09:16:57.520Z,18.72
2023-05-12T09:17:57.601Z,18.76
2023-05-12T09:18:58.912Z,18.84
2023-05-12T09:19:57.304Z,18.98
2023-05-12T09:20:57.349Z,19.14
2023-05-12T09:21:57.476Z,19.32
2023-05-12T09:22:57.253Z,19.42
2023-05-12T09:23:57.313Z,19.40
2023-05-12T09:24:57.229Z,19.36
2023-05-12T09:25:57.643Z,19.32
2023-05-12T09:26:57.248Z,19.32
2023-05-12T09:27:57.176Z,19.38
2023-05-12T09:28:57.321Z,19.48
2023-05-12T09:29:59.648Z,19.54
2023-05-12T09:30:57.265Z,19.60
2023-05-12T09:31:57.337Z,19.73
2023-05-12T09:32:57.298Z,19.60
2023-05-12T09:33:58.199Z,19.69
2023-05-12T09:34:57.126Z,19.79
2023-05-12T09:35:57.208Z,19.69
2023-05-12T09:36:57.076Z,19.63
2023-05-12T09:37:57.308Z,19.68
2023-05-12T09:38:58.160Z,19.66
2023-05-12T09:39:57.154Z,19.65
2023-05-12T09:40:57.137Z,19.69
2023-05-12T09:41:57.568Z,19.78
2023-05-12T09:42:57.036Z,19.97
2023-05-12T09:43:57.254Z,20.20
2023-05-12T09:44:58.189Z,20.06
2023-05-12T09:45:57.280Z,19.94
2023-05-12T09:46:57.000Z,19.86
2023-05-12T09:47:57.071Z,19.76
2023-05-12T09:48:56.970Z,19.68
2023-05-12T09:49:57.234Z,19.60
2023-05-12T09:50:57.232Z,19.69
2023-05-12T09:51:57.095Z,19.72
2023-05-12T09:52:58.933Z,19.61
2023-05-12T09:53:57.058Z,19.55
2023-05-12T09:54:56.990Z,19.31
2023-05-12T09:55:58.820Z,19.15
2023-05-12T09:56:58.488Z,19.28
2023-05-12T09:57:56.959Z,19.25
2023-05-12T09:58:57.046Z,19.24
2023-05-12T09:59:58.369Z,19.31
2023-05-12T10:01:56.932Z,19.47
2023-05-12T10:02:56.942Z,19.35
2023-05-12T10:03:58.373Z,19.21
2023-05-12T10:04:56.809Z,19.32
2023-05-12T10:05:56.790Z,19.55
2023-05-12T10:06:56.747Z,19.72
2023-05-12T10:07:58.387Z,19.86
2023-05-12T10:08:56.818Z,19.87
2023-05-12T10:09:56.741Z,20.06
2023-05-12T10:10:57.708Z,20.09
2023-05-12T10:11:56.766Z,20.09
2023-05-12T10:12:56.732Z,20.13
2023-05-12T10:13:56.923Z,20.16
2023-05-12T10:14:57.889Z,20.18
2023-05-12T10:15:56.830Z,20.21
2023-05-12T10:16:56.696Z,20.33
2023-05-12T10:17:56.740Z,20.47
2023-05-12T10:18:58.298Z,20.49
2023-05-12T10:19:56.610Z,20.46
2023-05-12T10:20:56.608Z,20.42
2023-05-12T10:21:56.718Z,20.31
2023-05-12T10:22:56.618Z,20.43
2023-05-12T10:23:56.638Z,20.64
2023-05-12T10:24:56.647Z,20.77
2023-05-12T10:25:56.586Z,20.86
2023-05-12T10:26:56.680Z,20.93
2023-05-12T10:27:56.557Z,20.79
2023-05-12T10:28:56.584Z,20.71
2023-05-12T10:29:57.660Z,20.56
2023-05-12T10:30:56.658Z,20.50
2023-05-12T10:31:56.610Z,20.39
2023-05-12T10:32:56.516Z,20.34
2023-05-12T10:33:58.171Z,20.30
2023-05-12T10:35:07.379Z,20.38
2023-05-12T10:35:56.587Z,20.46
2023-05-12T10:36:56.424Z,20.31
2023-05-12T10:37:56.498Z,20.24
2023-05-12T10:38:57.529Z,20.30
2023-05-12T10:39:56.449Z,20.47
2023-05-12T10:40:57.676Z,20.65
2023-05-12T10:41:56.533Z,20.76
2023-05-12T10:42:56.347Z,20.72
2023-05-12T10:43:56.518Z,20.71
2023-05-12T10:44:57.539Z,20.64
2023-05-12T10:45:56.600Z,20.54
2023-05-12T10:46:56.499Z,20.47
2023-05-12T10:47:56.489Z,20.49
2023-05-12T10:48:56.370Z,20.41
2023-05-12T10:49:56.453Z,20.39
2023-05-12T10:50:56.506Z,20.30
2023-05-12T10:51:56.456Z,20.35
2023-05-12T10:52:56.447Z,20.41
2023-05-12T10:53:56.281Z,20.51
2023-05-12T10:54:56.363Z,20.61
2023-05-12T10:55:57.976Z,20.59
2023-05-12T10:56:56.491Z,20.47
2023-05-12T10:57:56.615Z,20.42
2023-05-12T10:58:56.426Z,20.39
2023-05-12T10:59:58.393Z,20.43
2023-05-12T11:00:56.983Z,20.49
2023-05-12T11:01:56.775Z,20.56
2023-05-12T11:03:00.605Z,20.62
2023-05-12T11:03:57.345Z,20.58
2023-05-12T11:04:56.334Z,20.50
2023-05-12T11:05:56.264Z,20.53
2023-05-12T11:06:56.295Z,20.42
2023-05-12T11:07:57.030Z,20.34
2023-05-12T11:08:56.895Z,20.24
2023-05-12T11:09:59.284Z,20.28
2023-05-12T11:10:57.095Z,20.39
2023-05-12T11:11:56.564Z,20.47
2023-05-12T11:12:57.853Z,20.59
2023-05-12T11:13:56.195Z,20.76
2023-05-12T11:14:56.988Z,20.90
2023-05-12T11:15:56.304Z,20.96
2023-05-12T11:16:56.179Z,21.02
2023-05-12T11:17:56.040Z,21.08
2023-05-12T11:18:56.452Z,21.09
2023-05-12T11:19:55.951Z,21.04
2023-05-12T11:20:56.010Z,21.01
2023-05-12T11:21:56.287Z,21.02
2023-05-12T11:22:56.119Z,21.09
2023-05-12T11:23:55.910Z,21.08
2023-05-12T11:24:55.989Z,21.08
2023-05-12T11:25:56.437Z,21.13
2023-05-12T11:26:56.010Z,21.13
2023-05-12T11:27:55.895Z,21.21
2023-05-12T11:28:56.192Z,21.38
2023-05-12T11:29:56.200Z,21.53
2023-05-12T11:30:55.959Z,21.60
2023-05-12T11:31:57.779Z,21.69
2023-05-12T11:32:55.894Z,21.76
2023-05-12T11:34:04.630Z,21.90
2023-05-12T11:34:56.926Z,21.95
2023-05-12T11:35:55.788Z,22.04
2023-05-12T11:36:55.952Z,22.19
2023-05-12T11:37:55.988Z,22.13
2023-05-12T11:38:55.852Z,22.14
2023-05-12T11:39:55.756Z,22.14
2023-05-12T11:40:55.960Z,22.20
2023-05-12T11:42:05.521Z,22.20
2023-05-12T11:42:56.742Z,22.17
2023-05-12T11:43:55.730Z,22.12
2023-05-12T11:44:56.652Z,22.10
2023-05-12T11:45:55.859Z,22.07
2023-05-12T11:46:55.654Z,22.14
2023-05-12T11:47:56.932Z,22.04
2023-05-12T11:48:55.890Z,21.95
2023-05-12T11:49:55.683Z,21.85
2023-05-12T11:50:55.657Z,21.85
2023-05-12T11:51:55.629Z,21.92
2023-05-12T11:52:55.589Z,21.94
2023-05-12T11:53:55.543Z,21.99
2023-05-12T11:54:55.610Z,22.01
2023-05-12T11:55:55.561Z,21.94
2023-05-12T11:56:55.565Z,21.98
2023-05-12T11:57:55.535Z,21.98
2023-05-12T11:58:55.581Z,21.95
2023-05-12T11:59:56.532Z,21.98
2023-05-12T12:00:55.622Z,22.02
2023-05-12T12:01:55.552Z,22.13
2023-05-12T12:02:55.512Z,22.13
2023-05-12T12:03:56.594Z,22.23
2023-05-12T12:04:55.571Z,22.34
2023-05-12T12:05:55.492Z,22.46
2023-05-12T12:06:55.770Z,22.67
2023-05-12T12:07:55.586Z,22.69
2023-05-12T12:08:55.519Z,22.71
2023-05-12T12:09:55.462Z,22.72
2023-05-12T12:10:55.443Z,22.71
2023-05-12T12:11:55.390Z,22.75
2023-05-12T12:12:55.412Z,22.78
2023-05-12T12:13:55.499Z,22.80
2023-05-12T12:14:56.770Z,22.78
2023-05-12T12:15:55.437Z,22.78
2023-05-12T12:16:55.430Z,22.97
2023-05-12T12:17:55.380Z,23.05
2023-05-12T12:18:56.065Z,23.24
2023-05-12T12:19:55.305Z,23.42
2023-05-12T12:20:55.297Z,23.49
2023-05-12T12:21:55.317Z,23.62
2023-05-12T12:22:55.451Z,23.65
2023-05-12T12:23:55.501Z,23.71
2023-05-12T12:24:55.685Z,23.80
2023-05-12T12:25:55.336Z,23.71
2023-05-12T12:26:55.276Z,23.75
2023-05-12T12:27:55.413Z,23.80
2023-05-12T12:28:55.291Z,23.72
2023-05-12T12:29:55.334Z,23.70
2023-05-12T12:30:55.186Z,23.86
2023-05-12T12:31:55.848Z,24.00
2023-05-12T12:32:58.633Z,24.12
2023-05-12T12:33:55.400Z,24.23
2023-05-12T12:34:55.794Z,24.31
2023-05-12T12:35:56.497Z,24.04
2023-05-12T12:36:55.505Z,23.97
2023-05-12T12:37:55.204Z,24.00
2023-05-12T12:38:55.824Z,24.01
2023-05-12T12:39:55.112Z,24.04
2023-05-12T12:40:55.041Z,24.02
2023-05-12T12:41:55.061Z,23.94
2023-05-12T12:42:55.306Z,23.71
2023-05-12T12:43:55.018Z,23.46
2023-05-12T12:44:55.173Z,23.32
2023-05-12T12:46:48.747Z,22.90
2023-05-12T12:47:48.049Z,22.80
2023-05-12T12:48:47.963Z,22.78
2023-05-12T12:49:47.946Z,22.80
2023-05-12T12:50:47.903Z,22.74
2023-05-12T12:51:48.073Z,22.68
2023-05-12T12:52:47.896Z,22.71
2023-05-12T12:53:47.878Z,22.64
2023-05-12T12:54:47.848Z,22.56